タンクレド・ネヴェス国際空港の過去48時間の天気

タンクレド・ネヴェス国際空港 (Belo Horizonte)

現在時刻: 2/27 11:13 -03 (2/27 14:13 UTC) 以下の時間は現地時間です。

過去48時間のMETAR気象情報
時間 風向 風速(m/s) 視程 気温(℃) 湿度(%) 気圧(hPa) 天気現象
27 11:00 2 10km以上 26 74 1016
27 10:00 1 10km以上 24 83 1016
27 09:00 西 2 8000m 22 88 1016
27 08:00 西南西 2 3000m 21 94 1015 もや
27 07:33 1 2000m 21 100 1015 もや
27 07:00 1 800m 20 100 1014
27 06:00 北北東 4 500m 20 100 1014
27 05:05 北東 3 300m 20 100 1014 弱い雨 霧
27 05:00 北東 3 2000m 20 100 1015 もや
27 04:00 西北西 4 7000m 21 94 1015 弱い雨
27 03:00 南東 2 10km以上 21 94 1015
27 02:00 南南東 1 10km以上 21 100 1016
27 01:00 南西 1 10km以上 21 94 1016
27 00:00 北西 1 10km以上 21 94 1016
26 23:00 北北西 2 10km以上 22 88 1016
26 22:00 北北東 3 10km以上 22 88 1016
26 21:00 北北西 1 10km以上 23 83 1016
26 20:00 北西 1 10km以上 22 94 1015
26 19:00 北北東 4 10km以上 22 88 1014
26 18:00 北西 1 10km以上 24 78 1014
26 17:00 西南西 2 10km以上 24 78 1013
26 16:00 西北西 4 10km以上 25 74 1013
26 15:00 西南西 4 10km以上 25 78 1013
26 14:00 南南西 2 10km以上 25 78 1014
26 13:00 西 4 7000m 26 70 1015 周辺でしゅう雨
26 12:00 北西 5 10km以上 28 66 1015
26 11:00 北北西 4 10km以上 27 70 1016
26 10:00 南西 1 10km以上 25 78 1017
26 09:00 2 10km以上 24 83 1017
26 08:00 南東 2 8000m 23 89 1017
26 07:15 1 5000m 22 94 1017 散在した霧
26 07:00 西南西 1 3000m 21 100 1017 散在した霧
26 06:43 西南西 2 450m 21 100 1017
26 06:30 1 300m 21 94 1016
26 06:00 東南東 1 10km以上 21 94 1016
26 05:00 1 10km以上 20 106 1015
26 04:00 静穏 0 10km以上 21 100 1015
26 03:00 南東 1 10km以上 22 88 1016
26 02:00 1 10km以上 22 88 1016
26 01:00 東北東 1 10km以上 22 88 1016
26 00:00 北東 1 10km以上 23 83 1016
25 23:00 北北西 1 10km以上 23 78 1017
25 22:00 北北西 2 10km以上 24 78 1017
25 21:00 3 10km以上 24 83 1017
25 20:00 2 10km以上 25 74 1016
25 19:00 北北西 2 10km以上 25 74 1015
25 18:00 北北西 3 10km以上 26 70 1015
25 17:00 北北西 4 10km以上 27 66 1015
25 16:00 北西 4 10km以上 27 66 1015 周辺でしゅう雨
25 15:00 北北西 3 10km以上 27 62 1016
25 14:00 2 10km以上 27 70 1017
25 13:00 3 10km以上 26 70 1018
25 12:00 北東 3 10km以上 26 70 1019
SBCF 271400Z 09003KT 9999 SCT015 BKN030 BKN080 26/21 Q1016
SBCF 271300Z 19002KT 9999 BKN013 BKN030 24/21 Q1016
SBCF 271200Z 26003KT 8000 BKN007 BKN025 22/20 Q1016
SBCF 271100Z 25003KT 3000 BR BKN002 BKN020 21/20 Q1015
SBCF 271033Z 19001KT 2000 BR BKN002 BKN020 21/21 Q1015
SBCF 271000Z 01002KT 0800 R16/P2000 R34/P2000 FG BKN002 20/20 Q1014
SBCF 270900Z 03007KT 0500 R16/P2000 R34/P2000 FG BKN002 20/20 Q1014
SBCF 270805Z 05006KT 0300 R16/1600 R34/P2000 -RA FG SCT020 BKN070 20/20 Q1014
SBCF 270800Z 05005KT 2000 BR SCT020 BKN070 20/20 Q1015
SBCF 270700Z 29007KT 7000 -RA SCT020 BKN070 21/20 Q1015
SBCF 270600Z 14004KT 9999 SCT020 BKN080 21/20 Q1015
SBCF 270500Z 15001KT 9999 SCT015 BKN100 21/21 Q1016
SBCF 270400Z 22002KT CAVOK 21/20 Q1016
SBCF 270300Z 31002KT CAVOK 21/20 Q1016
SBCF 270200Z 33003KT CAVOK 22/20 Q1016
SBCF 270100Z 03006KT 9999 FEW030 SCT100 22/20 Q1016
SBCF 270000Z 34001KT CAVOK 23/20 Q1016
SBCF 262300Z 32002KT 9999 FEW030 BKN100 22/21 Q1015
SBCF 262200Z 03007KT 9999 FEW035 BKN100 22/20 Q1014
SBCF 262100Z 31001KT 9999 FEW035 BKN100 24/20 Q1014
SBCF 262000Z 25004KT 9999 FEW035 BKN100 24/20 Q1013
SBCF 261900Z 29007KT 9999 SCT035 FEW050TCU BKN100 25/20 Q1013
SBCF 261800Z 24007KT 9999 SCT035 FEW050TCU BKN100 25/21 Q1013
SBCF 261700Z 20004KT 9999 SCT040 FEW050TCU BKN100 25/21 Q1014
SBCF 261600Z 28007KT 7000 VCSH BKN040 FEW045TCU BKN100 26/20 Q1015
SBCF 261500Z 32009KT 9999 SCT025 FEW035TCU BKN100 28/21 Q1015
SBCF 261400Z 34007KT 9999 SCT025 BKN100 27/21 Q1016
SBCF 261300Z 23002KT 9999 SCT020 BKN100 25/21 Q1017
SBCF 261200Z 17003KT 9999 FEW030 BKN100 24/21 Q1017
SBCF 261100Z 13003KT 8000 FEW020 FEW030TCU BKN100 23/21 Q1017
SBCF 261015Z 17002KT 5000 BCFG SCT030 FEW035TCU SCT100 22/21 Q1017
SBCF 261000Z 24002KT 3000 BCFG SCT040 21/21 Q1017
SBCF 260943Z 24004KT 0450 R16/0700 R34/0700 FG SCT030 21/21 Q1017
SBCF 260930Z 19002KT 0300 R16/0250 R34/P2000 FG SCT040 21/20 Q1016
SBCF 260900Z 11001KT 9999 FEW035 BKN100 21/20 Q1016
SBCF 260800Z 18001KT 9999 SCT040 BKN100 20/21 Q1015
SBCF 260700Z 00000KT 9999 SCT040 BKN100 21/21 Q1015
SBCF 260600Z 14002KT 9999 SCT040 BKN100 22/20 Q1016
SBCF 260500Z 10002KT 9999 FEW040 BKN100 22/20 Q1016
SBCF 260400Z 06001KT 9999 FEW040 BKN100 22/20 Q1016
SBCF 260300Z 05002KT 9999 FEW040 BKN100 23/20 Q1016
SBCF 260200Z 33002KT 9999 FEW040 BKN100 23/19 Q1017
SBCF 260100Z 34003KT 9999 SCT040 BKN090 24/20 Q1017
SBCF 260000Z 36006KT 9999 SCT040 BKN080 24/21 Q1017
SBCF 252300Z 36003KT 9999 SCT045 25/20 Q1016
SBCF 252200Z 33003KT 9999 FEW045 SCT100 25/20 Q1015
SBCF 252100Z 34006KT 9999 SCT040 SCT100 26/20 Q1015
SBCF 252000Z 34007KT 9999 SCT040 FEW045TCU SCT100 27/20 Q1015
SBCF 251900Z 32008KT 9999 VCSH BKN035 FEW040TCU BKN100 27/20 Q1015
SBCF 251800Z 34005KT 9999 SCT030 FEW035TCU BKN100 27/19 Q1016
SBCF 251700Z 35004KT 9999 SCT035 BKN100 27/21 Q1017
SBCF 251600Z 36006KT 9999 BKN030 BKN100 26/20 Q1018
SBCF 251500Z 04005KT 9999 BKN023 BKN100 26/20 Q1019